Never My Love — WDJ6244 — position and weather

sailwx.info

Track history (hours):
 
Tides and Currents Weather Stations Pressure Air Temp Water Temp Dewpoint Dewpoint Depression Visibility Wind Speed Wind Dir Waves Ship Positions

Never My Love

Owner: Boland, Christopher, FORT LAUDERDALE, FL. More information available from US FCC via Universal Licensing System and Coast Guard Vessel Documentation Center.

Last reported at 2017-Oct-14 19:09 UTC. Time now 2017-Nov-19 01:31 UTC.
Position N 31°49' W 081°11'.
Warning: this ship's position is 35 days out of date.

Length 26 m.

Type: Pleasure craft. MMSI: 367795830.

Date/timePositionNaut miles runAvg speedWind from/ knotsBaromVisibWave heightAir tempDewpointWater temp
2017-Oct-14 19:09N 31°49' W 081°11'2 8.2
2017-Oct-14 18:52N 31°51' W 081°09'3 8.8
2017-Oct-14 18:29N 31°52' W 081°05'4 7.5
2017-Oct-14 17:59N 31°55' W 081°06'3 5.9
2017-Oct-14 17:29N 31°58' W 081°03'4 7.2
2017-Oct-14 17:00N 32°01' W 081°01'3 5.1
2017-Oct-14 16:30N 32°03' W 081°02'3 5.7
2017-Oct-14 16:00N 32°04' W 080°59'4 7.9
2017-Oct-14 15:30N 32°05' W 080°55'4 7.2
2017-Oct-14 15:00N 32°08' W 080°52'4 8.0
2017-Oct-14 14:28N 32°10' W 080°48'  
2017-Oct-10 11:47N 34°43' W 076°49'3 8.9
2017-Oct-10 11:30N 34°43' W 076°46'4 8.5
2017-Oct-10 11:00N 34°42' W 076°41'1 1.9
2017-Oct-10 10:29N 34°43' W 076°40'0 0.0
2017-Oct-10 09:59N 34°43' W 076°40'0 0.0
2017-Oct-10 09:26N 34°43' W 076°40'0 0.0
2017-Oct-10 08:59N 34°43' W 076°40'0 0.0
2017-Oct-10 08:29N 34°43' W 076°40'0 0.0
2017-Oct-10 07:59N 34°43' W 076°40'0 0.0
2017-Oct-10 07:29N 34°43' W 076°40'0 0.0
2017-Oct-10 06:59N 34°43' W 076°40'0 0.0
2017-Oct-10 06:29N 34°43' W 076°40'0 0.0
2017-Oct-10 05:59N 34°43' W 076°40'0 0.0
2017-Oct-10 05:29N 34°43' W 076°40'0 0.0
2017-Oct-10 04:56N 34°43' W 076°40'0 0.0
2017-Oct-10 04:29N 34°43' W 076°40'0 0.0
2017-Oct-10 03:53N 34°43' W 076°40'0 0.0
2017-Oct-10 03:29N 34°43' W 076°40'0 0.0
2017-Oct-10 02:53N 34°43' W 076°40'0 0.0
2017-Oct-10 02:29N 34°43' W 076°40'0 0.0
2017-Oct-10 01:59N 34°43' W 076°40'0 0.0
2017-Oct-10 01:29N 34°43' W 076°40'0 0.0
2017-Oct-10 00:59N 34°43' W 076°40'0 0.0
2017-Oct-10 00:26N 34°43' W 076°40'0 0.0
2017-Oct-09 23:59N 34°43' W 076°40'0 0.0
2017-Oct-09 23:29N 34°43' W 076°40'0 0.0
2017-Oct-09 22:59N 34°43' W 076°40'0 0.0
2017-Oct-09 22:29N 34°43' W 076°40'0 0.0
2017-Oct-09 21:56N 34°43' W 076°40'0 0.0
2017-Oct-09 21:29N 34°43' W 076°40'0 0.0
2017-Oct-09 20:59N 34°43' W 076°40'0 0.0
2017-Oct-09 20:29N 34°43' W 076°40'0 0.0
2017-Oct-09 19:59N 34°43' W 076°40'0 0.0
2017-Oct-09 19:23N 34°43' W 076°40'0 0.0
2017-Oct-09 18:59N 34°43' W 076°40'0 0.0
2017-Oct-09 18:29N 34°43' W 076°40'0 0.0
2017-Oct-09 17:50N 34°43' W 076°40'0 0.0
2017-Oct-09 17:29N 34°43' W 076°40'0 0.0
2017-Oct-09 16:56N 34°43' W 076°40'0 0.0
2017-Oct-09 16:29N 34°43' W 076°40'0 0.0
2017-Oct-09 15:59N 34°43' W 076°40'0 0.0
2017-Oct-09 15:29N 34°43' W 076°40'0 0.0
2017-Oct-09 14:59N 34°43' W 076°40'0 0.0
2017-Oct-09 14:29N 34°43' W 076°40'0 0.0
2017-Oct-09 13:59N 34°43' W 076°40'0 0.0
2017-Oct-09 13:28N 34°43' W 076°40'0 0.0
2017-Oct-09 12:58N 34°43' W 076°40'0 0.0
2017-Oct-09 12:28N 34°43' W 076°40'0 0.0
2017-Oct-09 11:58N 34°43' W 076°40'0 0.0
2017-Oct-09 11:28N 34°43' W 076°40'0 0.0
2017-Oct-09 10:52N 34°43' W 076°40'0 0.0
2017-Oct-09 10:28N 34°43' W 076°40'0 0.0
2017-Oct-09 09:59N 34°43' W 076°40'0 0.0
2017-Oct-09 09:28N 34°43' W 076°40'0 0.0
2017-Oct-09 08:58N 34°43' W 076°40'0 0.0
2017-Oct-09 08:28N 34°43' W 076°40'0 0.0
2017-Oct-09 07:55N 34°43' W 076°40'0 0.0
2017-Oct-09 07:25N 34°43' W 076°40'0 0.0
2017-Oct-09 06:58N 34°43' W 076°40'0 0.0
2017-Oct-09 06:25N 34°43' W 076°40'0 0.0
2017-Oct-09 05:52N 34°43' W 076°40'0 0.0
2017-Oct-09 05:28N 34°43' W 076°40'0 0.0
2017-Oct-09 04:58N 34°43' W 076°40'0 0.0
2017-Oct-09 04:28N 34°43' W 076°40'0 0.0
2017-Oct-09 03:58N 34°43' W 076°40'0 0.0
2017-Oct-09 03:28N 34°43' W 076°40'0 0.0
2017-Oct-09 02:55N 34°43' W 076°40'0 0.0
2017-Oct-09 02:28N 34°43' W 076°40'0 0.0
2017-Oct-09 01:58N 34°43' W 076°40'0 0.0
2017-Oct-09 01:28N 34°43' W 076°40'0 0.0
2017-Oct-09 00:58N 34°43' W 076°40'0 0.0
2017-Oct-09 00:28N 34°43' W 076°40'0 0.0
2017-Oct-08 23:55N 34°43' W 076°40'0 0.0
2017-Oct-08 23:28N 34°43' W 076°40'0 0.0
2017-Oct-08 22:58N 34°43' W 076°40'0 0.0
2017-Oct-08 22:28N 34°43' W 076°40'0 0.0
2017-Oct-08 21:58N 34°43' W 076°40'0 0.0
2017-Oct-08 21:25N 34°43' W 076°40'0 0.0
2017-Oct-08 20:58N 34°43' W 076°40'0 0.0
2017-Oct-08 20:28N 34°43' W 076°40'0 0.0
2017-Oct-08 19:58N 34°43' W 076°40'0 0.0
2017-Oct-08 19:28N 34°43' W 076°40'0 0.0
2017-Oct-08 18:58N 34°43' W 076°40'0 0.0
2017-Oct-08 18:28N 34°43' W 076°40'0 0.0
2017-Oct-08 17:58N 34°43' W 076°40'0 0.0
2017-Oct-08 17:28N 34°43' W 076°40'0 0.0
2017-Oct-08 16:58N 34°43' W 076°40'0 0.0
2017-Oct-08 16:28N 34°43' W 076°40'0 0.0
2017-Oct-08 15:58N 34°43' W 076°40'0 0.0
2017-Oct-08 15:28N 34°43' W 076°40'0 0.0
2017-Oct-08 14:58N 34°43' W 076°40'0 0.0
2017-Oct-08 14:28N 34°43' W 076°40'0 0.0
2017-Oct-08 13:58N 34°43' W 076°40'0 0.0
2017-Oct-08 13:28N 34°43' W 076°40'0 0.0
2017-Oct-08 12:55N 34°43' W 076°40'0 0.0
2017-Oct-08 12:25N 34°43' W 076°40'0 0.0
2017-Oct-08 11:58N 34°43' W 076°40'0 0.0
2017-Oct-08 11:25N 34°43' W 076°40'0 0.0
2017-Oct-08 10:58N 34°43' W 076°40'0 0.0
2017-Oct-08 10:28N 34°43' W 076°40'0 0.0
2017-Oct-08 09:58N 34°43' W 076°40'0 0.0
2017-Oct-08 09:28N 34°43' W 076°40'0 0.0
2017-Oct-08 08:55N 34°43' W 076°40'0 0.0
2017-Oct-08 08:28N 34°43' W 076°40'0 0.0
2017-Oct-08 07:58N 34°43' W 076°40'0 0.0
2017-Oct-08 07:28N 34°43' W 076°40'0 0.0
2017-Oct-08 06:58N 34°43' W 076°40'0 0.0
2017-Oct-08 06:30N 34°43' W 076°40'0 0.0
2017-Oct-08 05:57N 34°43' W 076°40'0 0.0
2017-Oct-08 05:30N 34°43' W 076°40'0 0.0
2017-Oct-08 05:00N 34°43' W 076°40'0 0.0
2017-Oct-08 04:30N 34°43' W 076°40'0 0.0
2017-Oct-08 04:00N 34°43' W 076°40'0 0.0
2017-Oct-08 03:30N 34°43' W 076°40'0 0.0
2017-Oct-08 03:00N 34°43' W 076°40'0 0.0
2017-Oct-08 02:27N 34°43' W 076°40'0 0.0
2017-Oct-08 02:00N 34°43' W 076°40'0 0.0
2017-Oct-08 01:30N 34°43' W 076°40'0 0.0
2017-Oct-08 01:00N 34°43' W 076°40'0 0.0
2017-Oct-08 00:30N 34°43' W 076°40'0 0.0
2017-Oct-08 00:00N 34°43' W 076°40'0 0.0
2017-Oct-07 23:30N 34°43' W 076°40'0 0.0
2017-Oct-07 23:00N 34°43' W 076°40'0 0.0
2017-Oct-07 22:30N 34°43' W 076°40'0 0.0
2017-Oct-07 22:00N 34°43' W 076°40'0 0.0
2017-Oct-07 21:30N 34°43' W 076°40'0 0.0
2017-Oct-07 20:57N 34°43' W 076°40'0 0.0
2017-Oct-07 20:30N 34°43' W 076°40'0 0.0
2017-Oct-07 20:00N 34°43' W 076°40'0 0.0
2017-Oct-07 19:30N 34°43' W 076°40'1 2.4
2017-Oct-07 18:58N 34°43' W 076°41'3 7.1
2017-Oct-07 18:30N 34°46' W 076°41'4 8.2
2017-Oct-07 18:00N 34°50' W 076°41'  
2017-Oct-04 20:08N 36°45' W 076°18'1 8.9
2017-Oct-04 20:00N 36°46' W 076°18'4 7.2
2017-Oct-04 19:30N 36°50' W 076°18'  
Track history (hours):
 
Tides and Currents Weather Stations Pressure Air Temp Water Temp Dewpoint Dewpoint Depression Visibility Wind Speed Wind Dir Waves Ship Positions

Never My Love

Owner: Boland, Christopher, FORT LAUDERDALE, FL. More information available from US FCC via Universal Licensing System and Coast Guard Vessel Documentation Center.

Last reported at 2017-Oct-14 19:09 UTC. Time now 2017-Nov-19 01:31 UTC.
Position N 31°49' W 081°11'.
Warning: this ship's position is 35 days out of date.

Length 26 m.

Type: Pleasure craft. MMSI: 367795830.

Date/timePositionNaut miles runAvg speedWind from/ knotsBaromVisibWave heightAir tempDewpointWater temp
2017-Oct-14 19:09N 31°49' W 081°11'2 8.2
2017-Oct-14 18:52N 31°51' W 081°09'3 8.8
2017-Oct-14 18:29N 31°52' W 081°05'4 7.5
2017-Oct-14 17:59N 31°55' W 081°06'3 5.9
2017-Oct-14 17:29N 31°58' W 081°03'4 7.2
2017-Oct-14 17:00N 32°01' W 081°01'3 5.1
2017-Oct-14 16:30N 32°03' W 081°02'3 5.7
2017-Oct-14 16:00N 32°04' W 080°59'4 7.9
2017-Oct-14 15:30N 32°05' W 080°55'4 7.2
2017-Oct-14 15:00N 32°08' W 080°52'4 8.0
2017-Oct-14 14:28N 32°10' W 080°48'  
2017-Oct-10 11:47N 34°43' W 076°49'3 8.9
2017-Oct-10 11:30N 34°43' W 076°46'4 8.5
2017-Oct-10 11:00N 34°42' W 076°41'1 1.9
2017-Oct-10 10:29N 34°43' W 076°40'0 0.0
2017-Oct-10 09:59N 34°43' W 076°40'0 0.0
2017-Oct-10 09:26N 34°43' W 076°40'0 0.0
2017-Oct-10 08:59N 34°43' W 076°40'0 0.0
2017-Oct-10 08:29N 34°43' W 076°40'0 0.0
2017-Oct-10 07:59N 34°43' W 076°40'0 0.0
2017-Oct-10 07:29N 34°43' W 076°40'0 0.0
2017-Oct-10 06:59N 34°43' W 076°40'0 0.0
2017-Oct-10 06:29N 34°43' W 076°40'0 0.0
2017-Oct-10 05:59N 34°43' W 076°40'0 0.0
2017-Oct-10 05:29N 34°43' W 076°40'0 0.0
2017-Oct-10 04:56N 34°43' W 076°40'0 0.0
2017-Oct-10 04:29N 34°43' W 076°40'0 0.0
2017-Oct-10 03:53N 34°43' W 076°40'0 0.0
2017-Oct-10 03:29N 34°43' W 076°40'0 0.0
2017-Oct-10 02:53N 34°43' W 076°40'0 0.0
2017-Oct-10 02:29N 34°43' W 076°40'0 0.0
2017-Oct-10 01:59N 34°43' W 076°40'0 0.0
2017-Oct-10 01:29N 34°43' W 076°40'0 0.0
2017-Oct-10 00:59N 34°43' W 076°40'0 0.0
2017-Oct-10 00:26N 34°43' W 076°40'0 0.0
2017-Oct-09 23:59N 34°43' W 076°40'0 0.0
2017-Oct-09 23:29N 34°43' W 076°40'0 0.0
2017-Oct-09 22:59N 34°43' W 076°40'0 0.0
2017-Oct-09 22:29N 34°43' W 076°40'0 0.0
2017-Oct-09 21:56N 34°43' W 076°40'0 0.0
2017-Oct-09 21:29N 34°43' W 076°40'0 0.0
2017-Oct-09 20:59N 34°43' W 076°40'0 0.0
2017-Oct-09 20:29N 34°43' W 076°40'0 0.0
2017-Oct-09 19:59N 34°43' W 076°40'0 0.0
2017-Oct-09 19:23N 34°43' W 076°40'0 0.0
2017-Oct-09 18:59N 34°43' W 076°40'0 0.0
2017-Oct-09 18:29N 34°43' W 076°40'0 0.0
2017-Oct-09 17:50N 34°43' W 076°40'0 0.0
2017-Oct-09 17:29N 34°43' W 076°40'0 0.0
2017-Oct-09 16:56N 34°43' W 076°40'0 0.0
2017-Oct-09 16:29N 34°43' W 076°40'0 0.0
2017-Oct-09 15:59N 34°43' W 076°40'0 0.0
2017-Oct-09 15:29N 34°43' W 076°40'0 0.0
2017-Oct-09 14:59N 34°43' W 076°40'0 0.0
2017-Oct-09 14:29N 34°43' W 076°40'0 0.0
2017-Oct-09 13:59N 34°43' W 076°40'0 0.0
2017-Oct-09 13:28N 34°43' W 076°40'0 0.0
2017-Oct-09 12:58N 34°43' W 076°40'0 0.0
2017-Oct-09 12:28N 34°43' W 076°40'0 0.0
2017-Oct-09 11:58N 34°43' W 076°40'0 0.0
2017-Oct-09 11:28N 34°43' W 076°40'0 0.0
2017-Oct-09 10:52N 34°43' W 076°40'0 0.0
2017-Oct-09 10:28N 34°43' W 076°40'0 0.0
2017-Oct-09 09:59N 34°43' W 076°40'0 0.0
2017-Oct-09 09:28N 34°43' W 076°40'0 0.0
2017-Oct-09 08:58N 34°43' W 076°40'0 0.0
2017-Oct-09 08:28N 34°43' W 076°40'0 0.0
2017-Oct-09 07:55N 34°43' W 076°40'0 0.0
2017-Oct-09 07:25N 34°43' W 076°40'0 0.0
2017-Oct-09 06:58N 34°43' W 076°40'0 0.0
2017-Oct-09 06:25N 34°43' W 076°40'0 0.0
2017-Oct-09 05:52N 34°43' W 076°40'0 0.0
2017-Oct-09 05:28N 34°43' W 076°40'0 0.0
2017-Oct-09 04:58N 34°43' W 076°40'0 0.0
2017-Oct-09 04:28N 34°43' W 076°40'0 0.0
2017-Oct-09 03:58N 34°43' W 076°40'0 0.0
2017-Oct-09 03:28N 34°43' W 076°40'0 0.0
2017-Oct-09 02:55N 34°43' W 076°40'0 0.0
2017-Oct-09 02:28N 34°43' W 076°40'0 0.0
2017-Oct-09 01:58N 34°43' W 076°40'0 0.0
2017-Oct-09 01:28N 34°43' W 076°40'0 0.0
2017-Oct-09 00:58N 34°43' W 076°40'0 0.0
2017-Oct-09 00:28N 34°43' W 076°40'0 0.0
2017-Oct-08 23:55N 34°43' W 076°40'0 0.0
2017-Oct-08 23:28N 34°43' W 076°40'0 0.0
2017-Oct-08 22:58N 34°43' W 076°40'0 0.0
2017-Oct-08 22:28N 34°43' W 076°40'0 0.0
2017-Oct-08 21:58N 34°43' W 076°40'0 0.0
2017-Oct-08 21:25N 34°43' W 076°40'0 0.0
2017-Oct-08 20:58N 34°43' W 076°40'0 0.0
2017-Oct-08 20:28N 34°43' W 076°40'0 0.0
2017-Oct-08 19:58N 34°43' W 076°40'0 0.0
2017-Oct-08 19:28N 34°43' W 076°40'0 0.0
2017-Oct-08 18:58N 34°43' W 076°40'0 0.0
2017-Oct-08 18:28N 34°43' W 076°40'0 0.0
2017-Oct-08 17:58N 34°43' W 076°40'0 0.0
2017-Oct-08 17:28N 34°43' W 076°40'0 0.0
2017-Oct-08 16:58N 34°43' W 076°40'0 0.0
2017-Oct-08 16:28N 34°43' W 076°40'0 0.0
2017-Oct-08 15:58N 34°43' W 076°40'0 0.0
2017-Oct-08 15:28N 34°43' W 076°40'0 0.0
2017-Oct-08 14:58N 34°43' W 076°40'0 0.0
2017-Oct-08 14:28N 34°43' W 076°40'0 0.0
2017-Oct-08 13:58N 34°43' W 076°40'0 0.0
2017-Oct-08 13:28N 34°43' W 076°40'0 0.0
2017-Oct-08 12:55N 34°43' W 076°40'0 0.0
2017-Oct-08 12:25N 34°43' W 076°40'0 0.0
2017-Oct-08 11:58N 34°43' W 076°40'0 0.0
2017-Oct-08 11:25N 34°43' W 076°40'0 0.0
2017-Oct-08 10:58N 34°43' W 076°40'0 0.0
2017-Oct-08 10:28N 34°43' W 076°40'0 0.0
2017-Oct-08 09:58N 34°43' W 076°40'0 0.0
2017-Oct-08 09:28N 34°43' W 076°40'0 0.0
2017-Oct-08 08:55N 34°43' W 076°40'0 0.0
2017-Oct-08 08:28N 34°43' W 076°40'0 0.0
2017-Oct-08 07:58N 34°43' W 076°40'0 0.0
2017-Oct-08 07:28N 34°43' W 076°40'0 0.0
2017-Oct-08 06:58N 34°43' W 076°40'0 0.0
2017-Oct-08 06:30N 34°43' W 076°40'0 0.0
2017-Oct-08 05:57N 34°43' W 076°40'0 0.0
2017-Oct-08 05:30N 34°43' W 076°40'0 0.0
2017-Oct-08 05:00N 34°43' W 076°40'0 0.0
2017-Oct-08 04:30N 34°43' W 076°40'0 0.0
2017-Oct-08 04:00N 34°43' W 076°40'0 0.0
2017-Oct-08 03:30N 34°43' W 076°40'0 0.0
2017-Oct-08 03:00N 34°43' W 076°40'0 0.0
2017-Oct-08 02:27N 34°43' W 076°40'0 0.0
2017-Oct-08 02:00N 34°43' W 076°40'0 0.0
2017-Oct-08 01:30N 34°43' W 076°40'0 0.0
2017-Oct-08 01:00N 34°43' W 076°40'0 0.0
2017-Oct-08 00:30N 34°43' W 076°40'0 0.0
2017-Oct-08 00:00N 34°43' W 076°40'0 0.0
2017-Oct-07 23:30N 34°43' W 076°40'0 0.0
2017-Oct-07 23:00N 34°43' W 076°40'0 0.0
2017-Oct-07 22:30N 34°43' W 076°40'0 0.0
2017-Oct-07 22:00N 34°43' W 076°40'0 0.0
2017-Oct-07 21:30N 34°43' W 076°40'0 0.0
2017-Oct-07 20:57N 34°43' W 076°40'0 0.0
2017-Oct-07 20:30N 34°43' W 076°40'0 0.0
2017-Oct-07 20:00N 34°43' W 076°40'0 0.0
2017-Oct-07 19:30N 34°43' W 076°40'1 2.4
2017-Oct-07 18:58N 34°43' W 076°41'3 7.1
2017-Oct-07 18:30N 34°46' W 076°41'4 8.2
2017-Oct-07 18:00N 34°50' W 076°41'  
2017-Oct-04 20:08N 36°45' W 076°18'1 8.9
2017-Oct-04 20:00N 36°46' W 076°18'4 7.2
2017-Oct-04 19:30N 36°50' W 076°18'  

Dump ship's entire track history